Disclaimer

Please do not use the information listed here in-flight or in-navigation, as they are not provided to us by the airports but are provided by volunteers, so they might be outdated.

Search


Regions


Airport information page

Radio informations:
CONSTANTINE TWR - 118.3 MHz
CONSTANTINE APP - 120.1 MHz

Airport informations:
Latitude: 36° 16' 33.70" N
Longitude: 006° 37' 13.39" E
Elevation: 2265 feet - 690 meters
Operating hours: Remarks
Operating agency: Civil government, landing fees and diplomatic clearance may be required
Timezone: UTC+1 - Dates notified by NOTAM
Fuel: N/A

Runway information:
14/32 - 7874 x 148 feet< - >2400 x 45 meters
16/34 - 9843 x 148 feet< - >3000 x 45 meters

Recent METARs:
DABC 131800Z 11003KT 9999 SCT033 16/08 Q1026
DABC 131830Z 14004KT 9999 SCT033 15/09 Q1026
DABC 131900Z 16003KT 9999 FEW033 SCT200 14/09 Q1026

Airport on the map: